createdAt,value
2018-04-02T00:00:02.258Z,4.83
2018-04-02T00:02:31.905Z,5.10
2018-04-02T00:05:01.502Z,5.87
2018-04-02T00:07:30.985Z,6.20
2018-04-02T00:10:00.541Z,6.07
2018-04-02T00:12:30.867Z,4.90
2018-04-02T00:15:00.573Z,5.40
2018-04-02T00:20:51.021Z,5.70
2018-04-02T00:26:41.989Z,5.43
2018-04-02T00:29:11.299Z,5.70
2018-04-02T00:31:41.029Z,5.87
2018-04-02T00:34:10.485Z,6.57
2018-04-02T00:36:45.286Z,4.90
2018-04-02T00:39:15.848Z,4.23
2018-04-02T00:41:45.545Z,4.97
2018-04-02T00:44:14.889Z,5.67
2018-04-02T00:46:44.983Z,5.57
2018-04-02T00:49:14.321Z,5.97
2018-04-02T00:51:44.473Z,6.97
2018-04-02T00:54:14.618Z,5.57
2018-04-02T00:56:44.770Z,5.70
2018-04-02T00:59:14.134Z,6.77
2018-04-02T01:01:43.797Z,7.90
2018-04-02T01:04:13.107Z,5.63
2018-04-02T01:06:42.407Z,5.90
2018-04-02T01:09:11.765Z,6.07
2018-04-02T01:11:41.119Z,6.40
2018-04-02T01:14:11.186Z,5.50
2018-04-02T01:16:40.788Z,6.70
2018-04-02T01:19:10.102Z,5.77
2018-04-02T01:21:39.425Z,7.80
2018-04-02T01:24:09.478Z,7.67
2018-04-02T01:26:39.138Z,5.77
2018-04-02T01:29:08.509Z,6.33
2018-04-02T01:31:38.407Z,6.87
2018-04-02T01:34:07.897Z,6.80
2018-04-02T01:36:38.118Z,5.90
2018-04-02T01:39:08.307Z,6.23
2018-04-02T01:41:37.618Z,5.53
2018-04-02T01:44:06.999Z,5.63
2018-04-02T01:46:36.546Z,6.50
2018-04-02T01:49:05.882Z,7.10
2018-04-02T01:51:35.202Z,5.80
2018-04-02T01:54:07.294Z,4.60
2018-04-02T01:56:36.658Z,5.80
2018-04-02T01:59:06.003Z,5.30
2018-04-02T02:01:35.426Z,6.43
2018-04-02T02:04:04.751Z,6.00
2018-04-02T02:06:34.241Z,5.80
2018-04-02T02:09:03.621Z,6.50
2018-04-02T02:11:32.931Z,7.67
2018-04-02T02:14:02.328Z,10.27
2018-04-02T02:16:31.982Z,9.73
2018-04-02T02:19:01.302Z,10.60
2018-04-02T02:21:30.626Z,9.27
2018-04-02T02:23:59.983Z,6.57
2018-04-02T02:26:29.457Z,6.27
2018-04-02T02:29:00.234Z,6.27
2018-04-02T02:31:39.128Z,5.67
2018-04-02T02:34:10.444Z,5.40
2018-04-02T02:36:42.304Z,5.77
2018-04-02T02:39:17.116Z,5.83
2018-04-02T02:41:49.321Z,6.60
2018-04-02T02:44:19.973Z,6.00
2018-04-02T02:46:50.081Z,6.90
2018-04-02T02:52:40.161Z,7.60
2018-04-02T02:58:30.774Z,7.63
2018-04-02T03:01:00.234Z,7.67
2018-04-02T03:03:29.644Z,6.73
2018-04-02T03:05:59.627Z,6.67
2018-04-02T03:08:29.026Z,7.20
2018-04-02T03:10:58.776Z,8.27
2018-04-02T03:13:28.939Z,7.80
2018-04-02T03:15:58.371Z,7.77
2018-04-02T03:18:27.843Z,9.10
2018-04-02T03:20:57.906Z,9.17
2018-04-02T03:23:27.374Z,10.33
2018-04-02T03:25:57.506Z,10.53
2018-04-02T03:28:28.074Z,9.70
2018-04-02T03:31:01.704Z,11.07
2018-04-02T03:33:32.928Z,10.40
2018-04-02T03:36:03.617Z,9.50
2018-04-02T03:38:33.014Z,9.43
2018-04-02T03:41:06.887Z,10.13
2018-04-02T03:43:36.678Z,10.57
2018-04-02T03:46:06.289Z,10.43
2018-04-02T03:48:36.859Z,10.43
2018-04-02T03:51:08.767Z,8.77
2018-04-02T03:53:39.380Z,9.77
2018-04-02T03:56:08.843Z,8.43
2018-04-02T03:58:38.280Z,9.40
2018-04-02T04:01:07.712Z,9.57
2018-04-02T04:03:37.230Z,7.93
2018-04-02T04:06:06.614Z,8.63
2018-04-02T04:08:35.985Z,9.13
2018-04-02T04:11:05.447Z,9.03
2018-04-02T04:13:34.883Z,10.77
2018-04-02T04:16:04.275Z,9.13
2018-04-02T04:18:33.756Z,8.73
2018-04-02T04:21:03.919Z,7.00
2018-04-02T04:23:33.321Z,8.47
2018-04-02T04:26:03.078Z,8.40
2018-04-02T04:28:32.454Z,7.47
2018-04-02T04:31:01.864Z,7.87
2018-04-02T04:33:31.378Z,7.43
2018-04-02T04:36:00.833Z,9.17
2018-04-02T04:38:30.242Z,9.03
2018-04-02T04:40:59.690Z,8.63
2018-04-02T04:43:29.233Z,8.27
2018-04-02T04:45:58.643Z,8.73
2018-04-02T04:48:28.597Z,9.23
2018-04-02T04:54:30.425Z,9.27
2018-04-02T04:57:00.402Z,8.80
2018-04-02T04:59:30.451Z,9.57
2018-04-02T05:02:00.144Z,8.53
2018-04-02T05:04:29.778Z,8.97
2018-04-02T05:06:59.618Z,8.23
2018-04-02T05:09:29.395Z,8.97
2018-04-02T05:11:59.623Z,8.47
2018-04-02T05:14:29.356Z,9.27
2018-04-02T05:16:59.057Z,10.70
2018-04-02T05:19:28.914Z,8.87
2018-04-02T05:21:58.603Z,9.40
2018-04-02T05:24:28.227Z,9.23
2018-04-02T05:26:58.756Z,9.73
2018-04-02T05:29:28.444Z,14.60
2018-04-02T05:31:58.293Z,16.10
2018-04-02T05:34:27.921Z,17.73
2018-04-02T05:36:57.638Z,16.93
2018-04-02T05:39:27.405Z,13.40
2018-04-02T05:41:57.134Z,12.50
2018-04-02T05:44:26.833Z,12.07
2018-04-02T05:46:56.636Z,12.43
2018-04-02T05:49:27.065Z,12.17
2018-04-02T05:51:56.711Z,14.00
2018-04-02T05:54:26.474Z,12.73
2018-04-02T06:00:17.788Z,12.60
2018-04-02T06:02:47.216Z,11.13
2018-04-02T06:05:16.677Z,9.53
2018-04-02T06:07:46.117Z,10.67
2018-04-02T06:10:15.588Z,10.47
2018-04-02T06:12:44.997Z,11.80
2018-04-02T06:15:15.050Z,10.90
2018-04-02T06:17:44.462Z,11.37
2018-04-02T06:20:13.982Z,9.67
2018-04-02T06:22:43.755Z,10.13
2018-04-02T06:25:13.274Z,11.10
2018-04-02T06:27:43.358Z,9.93
2018-04-02T06:30:13.219Z,9.73
2018-04-02T06:32:43.321Z,11.10
2018-04-02T06:35:12.733Z,10.57
2018-04-02T06:37:42.219Z,10.73
2018-04-02T06:43:33.097Z,10.80
2018-04-02T06:46:03.370Z,11.50
2018-04-02T06:49:11.668Z,10.27
2018-04-02T06:51:41.567Z,9.83
2018-04-02T06:54:11.592Z,9.77
2018-04-02T06:56:41.364Z,10.43
2018-04-02T06:59:10.671Z,9.17
2018-04-02T07:01:40.071Z,11.17
2018-04-02T07:04:09.568Z,9.97
2018-04-02T07:06:39.237Z,10.33
2018-04-02T07:09:09.371Z,10.20
2018-04-02T07:11:39.517Z,11.87
2018-04-02T07:14:09.010Z,13.03
2018-04-02T07:16:38.445Z,11.20
2018-04-02T07:19:08.040Z,10.97
2018-04-02T07:21:37.506Z,11.87
2018-04-02T07:24:06.874Z,11.07
2018-04-02T07:26:36.185Z,11.60
2018-04-02T07:29:05.824Z,11.87
2018-04-02T07:31:35.218Z,11.63
2018-04-02T07:34:05.452Z,11.97
2018-04-02T07:36:35.971Z,10.80
2018-04-02T07:39:06.359Z,11.00
2018-04-02T07:41:36.678Z,10.67
2018-04-02T07:44:05.997Z,10.67
2018-04-02T07:46:35.368Z,10.60
2018-04-02T07:49:04.960Z,11.57
2018-04-02T07:51:34.302Z,11.17
2018-04-02T07:54:03.674Z,11.20
2018-04-02T07:56:33.188Z,11.07
2018-04-02T07:59:02.779Z,9.67
2018-04-02T08:01:32.105Z,10.10
2018-04-02T08:04:01.765Z,10.93
2018-04-02T08:06:31.133Z,10.53
2018-04-02T08:09:00.503Z,9.57
2018-04-02T08:11:30.029Z,10.23
2018-04-02T08:13:59.364Z,10.40
2018-04-02T08:16:28.757Z,10.43
2018-04-02T08:18:58.190Z,11.13
2018-04-02T08:21:27.528Z,10.33
2018-04-02T08:23:56.841Z,11.00
2018-04-02T08:26:26.250Z,9.43
2018-04-02T08:28:55.743Z,10.50
2018-04-02T08:31:25.050Z,10.10
2018-04-02T08:33:54.470Z,11.50
2018-04-02T08:36:23.865Z,11.30
2018-04-02T08:38:53.857Z,11.03
2018-04-02T08:41:23.670Z,11.73
2018-04-02T08:43:53.390Z,11.50
2018-04-02T08:46:23.633Z,12.00
2018-04-02T08:48:53.038Z,12.83
2018-04-02T08:51:22.377Z,12.50
2018-04-02T08:53:51.746Z,13.03
2018-04-02T08:56:21.059Z,14.23
2018-04-02T08:58:51.608Z,13.70
2018-04-02T09:01:21.752Z,13.67
2018-04-02T09:03:51.241Z,13.63
2018-04-02T09:09:52.417Z,11.97
2018-04-02T09:12:21.768Z,12.23
2018-04-02T09:14:51.190Z,13.23
2018-04-02T09:17:21.863Z,11.83
2018-04-02T09:19:51.785Z,11.33
2018-04-02T09:22:21.168Z,11.53
2018-04-02T09:24:50.586Z,12.77
2018-04-02T09:27:20.112Z,12.40
2018-04-02T09:29:50.415Z,13.83
2018-04-02T09:32:54.068Z,14.53
2018-04-02T09:35:24.162Z,15.23
2018-04-02T09:41:24.696Z,13.83
2018-04-02T09:47:15.974Z,13.77
2018-04-02T09:53:07.056Z,14.97
2018-04-02T09:55:36.634Z,12.70
2018-04-02T09:58:06.330Z,13.40
2018-04-02T10:00:36.091Z,13.53
2018-04-02T10:03:05.675Z,13.67
2018-04-02T10:06:14.933Z,14.03
2018-04-02T10:08:44.747Z,13.87
2018-04-02T10:14:35.155Z,14.00
2018-04-02T10:17:04.602Z,14.77
2018-04-02T10:23:05.004Z,14.07
2018-04-02T10:25:35.673Z,14.70
2018-04-02T10:28:05.067Z,14.30
2018-04-02T10:30:34.249Z,14.17
2018-04-02T10:33:03.508Z,13.67
2018-04-02T10:35:32.764Z,13.90
2018-04-02T10:38:02.170Z,15.73
2018-04-02T10:40:31.335Z,14.00
2018-04-02T10:43:00.734Z,13.93
2018-04-02T10:45:29.992Z,14.67
2018-04-02T10:47:59.945Z,14.97
2018-04-02T10:50:29.243Z,16.20
2018-04-02T10:52:58.403Z,16.93
2018-04-02T10:55:27.692Z,16.47
2018-04-02T10:57:56.932Z,16.17
2018-04-02T11:00:26.425Z,15.47
2018-04-02T11:02:55.983Z,15.17
2018-04-02T11:05:25.312Z,15.43
2018-04-02T11:07:54.653Z,17.07
2018-04-02T11:10:24.004Z,16.97
2018-04-02T11:12:53.514Z,18.20
2018-04-02T11:15:22.815Z,16.67
2018-04-02T11:17:52.037Z,16.80
2018-04-02T11:20:21.586Z,18.27
2018-04-02T11:22:50.756Z,16.87
2018-04-02T11:25:20.068Z,17.83
2018-04-02T11:27:49.403Z,18.50
2018-04-02T11:30:18.615Z,19.53
2018-04-02T11:32:47.894Z,17.20
2018-04-02T11:35:17.167Z,22.07
2018-04-02T11:37:46.494Z,34.97
2018-04-02T11:40:15.720Z,33.87
2018-04-02T11:42:44.957Z,37.83
2018-04-02T11:45:14.234Z,53.03
2018-04-02T11:47:43.457Z,47.73
2018-04-02T11:50:12.827Z,39.50
2018-04-02T11:52:42.127Z,32.37
2018-04-02T11:55:12.160Z,25.07
2018-04-02T11:57:41.384Z,26.33
2018-04-02T12:00:11.452Z,24.70
2018-04-02T12:02:40.742Z,21.93
2018-04-02T12:05:10.819Z,24.73
2018-04-02T12:07:40.070Z,21.63
2018-04-02T12:10:09.463Z,20.37
2018-04-02T12:12:38.667Z,19.87
2018-04-02T12:15:07.990Z,18.63
2018-04-02T12:17:38.125Z,17.97
2018-04-02T12:20:07.390Z,17.30
2018-04-02T12:22:36.690Z,17.23
2018-04-02T12:25:06.040Z,17.20
2018-04-02T12:27:36.163Z,16.37
2018-04-02T12:30:05.434Z,15.37
2018-04-02T12:32:34.749Z,14.80
2018-04-02T12:35:03.998Z,14.57
2018-04-02T12:37:33.324Z,13.30
2018-04-02T12:40:02.728Z,11.80
2018-04-02T12:42:32.871Z,12.10
2018-04-02T12:45:06.881Z,12.10
2018-04-02T12:47:36.412Z,12.03
2018-04-02T12:50:08.051Z,10.83
2018-04-02T12:56:05.581Z,10.90
2018-04-02T12:58:46.168Z,10.00
2018-04-02T13:01:16.596Z,10.90
2018-04-02T13:03:45.816Z,13.87
2018-04-02T13:06:15.047Z,17.23
2018-04-02T13:08:47.791Z,18.13
2018-04-02T13:11:17.241Z,19.90
2018-04-02T13:13:46.709Z,22.13
2018-04-02T13:16:16.342Z,20.63
2018-04-02T13:18:46.464Z,22.77
2018-04-02T13:21:15.757Z,20.07
2018-04-02T13:23:44.988Z,18.80
2018-04-02T13:26:14.217Z,22.23
2018-04-02T13:28:43.534Z,20.17
2018-04-02T13:31:12.826Z,21.37
2018-04-02T13:33:42.113Z,23.77
2018-04-02T13:36:11.422Z,17.63
2018-04-02T13:38:40.644Z,17.70
2018-04-02T13:41:09.882Z,20.50
2018-04-02T13:43:39.280Z,19.37
2018-04-02T13:46:08.597Z,21.27
2018-04-02T13:48:38.098Z,19.63
2018-04-02T13:51:07.471Z,17.90
2018-04-02T13:53:37.498Z,18.97
2018-04-02T13:56:06.827Z,21.70
2018-04-02T13:58:36.075Z,18.57
2018-04-02T14:01:05.422Z,18.20
2018-04-02T14:03:34.914Z,16.83
2018-04-02T14:06:04.145Z,13.20
2018-04-02T14:12:01.826Z,16.00
2018-04-02T14:14:32.570Z,16.97
2018-04-02T14:17:02.262Z,16.20
2018-04-02T14:19:32.767Z,12.20
2018-04-02T14:22:02.450Z,13.07
2018-04-02T14:24:32.218Z,12.60
2018-04-02T14:27:02.144Z,13.67
2018-04-02T14:29:32.050Z,11.50
2018-04-02T14:32:01.802Z,11.37
2018-04-02T14:34:31.488Z,12.60
2018-04-02T14:37:01.117Z,11.90
2018-04-02T14:39:30.826Z,11.67
2018-04-02T14:42:00.467Z,10.93
2018-04-02T14:44:30.978Z,13.63
2018-04-02T14:47:00.663Z,10.20
2018-04-02T14:49:31.454Z,10.40
2018-04-02T14:52:01.893Z,8.07
2018-04-02T14:54:33.132Z,9.33
2018-04-02T14:57:10.297Z,12.30
2018-04-02T14:59:40.327Z,9.33
2018-04-02T15:02:23.755Z,6.80
2018-04-02T15:05:13.019Z,9.47
2018-04-02T15:07:43.188Z,6.37
2018-04-02T15:10:13.178Z,7.50
2018-04-02T15:12:44.474Z,7.60
2018-04-02T15:15:14.174Z,10.73
2018-04-02T15:17:45.233Z,10.30
2018-04-02T15:20:17.346Z,7.20
2018-04-02T15:22:47.001Z,7.53
2018-04-02T15:25:17.358Z,7.93
2018-04-02T15:27:47.698Z,8.50
2018-04-02T15:30:17.246Z,7.87
2018-04-02T15:32:46.935Z,9.47
2018-04-02T15:35:18.490Z,9.50
2018-04-02T15:37:48.426Z,9.63
2018-04-02T15:40:18.022Z,8.23
2018-04-02T15:42:48.808Z,9.10
2018-04-02T15:45:18.384Z,9.60
2018-04-02T15:47:48.015Z,10.07
2018-04-02T15:50:18.427Z,9.37
2018-04-02T15:52:50.181Z,9.37
2018-04-02T15:55:19.935Z,8.70
2018-04-02T15:57:49.815Z,9.50
2018-04-02T16:00:19.958Z,8.67
2018-04-02T16:02:49.811Z,8.43
2018-04-02T16:05:20.709Z,9.10
2018-04-02T16:07:51.310Z,8.50
2018-04-02T16:10:26.180Z,11.57
2018-04-02T16:12:57.535Z,7.67
2018-04-02T16:15:31.106Z,7.63
2018-04-02T16:18:05.851Z,7.50
2018-04-02T16:20:42.898Z,9.90
2018-04-02T16:23:59.991Z,8.73
2018-04-02T16:26:29.763Z,8.73
2018-04-02T16:29:05.519Z,8.70
2018-04-02T16:31:35.031Z,8.80
2018-04-02T16:34:05.467Z,8.47
2018-04-02T16:36:34.694Z,7.50
2018-04-02T16:39:04.038Z,8.00
2018-04-02T16:41:40.824Z,7.20
2018-04-02T16:44:10.210Z,7.23
2018-04-02T16:46:41.263Z,7.37
2018-04-02T16:49:10.767Z,7.43
2018-04-02T16:51:40.015Z,8.10
2018-04-02T16:54:09.363Z,9.73
2018-04-02T16:56:38.591Z,7.90
2018-04-02T16:59:08.691Z,7.10
2018-04-02T17:01:38.296Z,7.50
2018-04-02T17:04:07.823Z,7.57
2018-04-02T17:06:37.956Z,7.47
2018-04-02T17:09:07.524Z,7.80
2018-04-02T17:11:36.824Z,6.83
2018-04-02T17:14:07.176Z,6.53
2018-04-02T17:16:36.895Z,8.60
2018-04-02T17:19:06.250Z,8.50
2018-04-02T17:21:36.053Z,7.03
2018-04-02T17:24:05.362Z,6.57
2018-04-02T17:26:35.900Z,6.30
2018-04-02T17:29:06.180Z,5.60
2018-04-02T17:31:35.458Z,5.67
2018-04-02T17:34:05.343Z,5.93
2018-04-02T17:36:34.805Z,6.77
2018-04-02T17:39:04.394Z,7.07
2018-04-02T17:41:34.064Z,6.60
2018-04-02T17:44:04.922Z,6.90
2018-04-02T17:46:34.314Z,6.03
2018-04-02T17:49:03.703Z,6.25
2018-04-02T17:51:33.346Z,5.03
2018-04-02T17:54:02.660Z,6.40
2018-04-02T17:56:32.141Z,6.87
2018-04-02T17:59:02.132Z,8.30
2018-04-02T18:01:31.411Z,6.47
2018-04-02T18:04:00.748Z,6.40
2018-04-02T18:06:30.028Z,7.03
2018-04-02T18:08:59.312Z,6.60
2018-04-02T18:11:29.772Z,6.77
2018-04-02T18:13:59.095Z,5.07
2018-04-02T18:16:28.453Z,6.20
2018-04-02T18:18:58.275Z,5.80
2018-04-02T18:21:27.567Z,6.20
2018-04-02T18:23:56.958Z,6.83
2018-04-02T18:26:27.455Z,5.33
2018-04-02T18:28:57.829Z,6.00
2018-04-02T18:31:27.412Z,6.20
2018-04-02T18:33:56.746Z,5.97
2018-04-02T18:36:27.151Z,5.40
2018-04-02T18:38:56.442Z,6.00
2018-04-02T18:41:32.167Z,5.77
2018-04-02T18:44:06.311Z,9.37
2018-04-02T18:46:36.095Z,8.83
2018-04-02T18:49:05.421Z,11.07
2018-04-02T18:51:35.039Z,12.43
2018-04-02T18:54:04.478Z,9.70
2018-04-02T18:56:35.242Z,10.90
2018-04-02T18:59:04.926Z,12.10
2018-04-02T19:01:34.220Z,12.20
2018-04-02T19:04:03.717Z,10.20
2018-04-02T19:06:34.960Z,11.43
2018-04-02T19:09:10.748Z,14.83
2018-04-02T19:11:44.598Z,18.77
2018-04-02T19:14:15.951Z,18.83
2018-04-02T19:16:46.226Z,18.97
2018-04-02T19:19:25.739Z,17.13
2018-04-02T19:22:05.362Z,16.03
2018-04-02T19:24:37.731Z,12.70
2018-04-02T19:27:11.635Z,12.30
2018-04-02T19:29:44.817Z,13.47
2018-04-02T19:32:15.335Z,13.07
2018-04-02T19:34:48.114Z,16.63
2018-04-02T19:37:20.912Z,12.83
2018-04-02T19:39:53.010Z,11.50
2018-04-02T19:42:25.822Z,12.00
2018-04-02T19:44:55.544Z,11.63
2018-04-02T19:47:26.865Z,13.00
2018-04-02T19:49:58.518Z,14.60
2018-04-02T19:52:28.466Z,11.53
2018-04-02T19:55:03.147Z,13.67
2018-04-02T19:57:33.590Z,10.37
2018-04-02T20:00:03.175Z,16.30
2018-04-02T20:02:32.539Z,12.97
2018-04-02T20:05:02.421Z,12.20
2018-04-02T20:10:52.766Z,13.53
2018-04-02T20:13:22.478Z,15.67
2018-04-02T20:15:51.939Z,15.47
2018-04-02T20:18:21.647Z,13.10
2018-04-02T20:20:50.965Z,16.53
2018-04-02T20:23:20.785Z,18.47
2018-04-02T20:25:51.145Z,13.27
2018-04-02T20:28:22.340Z,13.17
2018-04-02T20:30:51.913Z,12.47
2018-04-02T20:33:21.621Z,11.63
2018-04-02T20:35:51.271Z,11.43
2018-04-02T20:38:23.956Z,11.50
2018-04-02T20:40:57.477Z,8.07
2018-04-02T20:43:32.457Z,9.30
2018-04-02T20:46:07.846Z,8.97
2018-04-02T20:48:49.139Z,8.47
2018-04-02T20:51:21.126Z,16.00
2018-04-02T20:53:50.503Z,16.60
2018-04-02T20:56:19.772Z,14.37
2018-04-02T20:58:50.020Z,14.43
2018-04-02T21:01:19.307Z,69.63
2018-04-02T21:09:55.700Z,13.80
2018-04-02T21:12:25.573Z,16.87
2018-04-02T21:14:54.973Z,31.17
2018-04-02T21:17:24.252Z,25.77
2018-04-02T21:19:53.973Z,22.93
2018-04-02T21:22:23.363Z,24.97
2018-04-02T21:25:00.798Z,52.70
2018-04-02T21:27:30.654Z,24.77
2018-04-02T21:29:59.963Z,25.57
2018-04-02T21:32:34.539Z,27.37
2018-04-02T21:35:09.689Z,22.90
2018-04-02T21:37:39.030Z,22.03
2018-04-02T21:40:08.387Z,27.43
2018-04-02T21:42:37.764Z,32.63
2018-04-02T21:45:07.685Z,26.90
2018-04-02T21:47:41.657Z,28.70
2018-04-02T21:50:12.434Z,24.50
2018-04-02T21:52:42.034Z,22.37
2018-04-02T21:55:12.410Z,21.37
2018-04-02T21:57:42.548Z,23.87
2018-04-02T22:00:13.289Z,21.73
2018-04-02T22:02:43.381Z,21.37
2018-04-02T22:05:14.152Z,22.70
2018-04-02T22:07:44.040Z,23.20
2018-04-02T22:10:14.811Z,24.30
2018-04-02T22:12:54.378Z,32.37
2018-04-02T22:15:23.768Z,29.83
2018-04-02T22:17:53.673Z,31.83
2018-04-02T22:20:22.951Z,28.60
2018-04-02T22:22:52.269Z,24.97
2018-04-02T22:25:21.551Z,25.13
2018-04-02T22:27:51.357Z,30.90
2018-04-02T22:30:24.127Z,25.37
2018-04-02T22:32:53.383Z,25.17
2018-04-02T22:35:22.753Z,25.30
2018-04-02T22:37:52.066Z,26.30
2018-04-02T22:43:43.049Z,26.57
2018-04-02T22:46:12.416Z,28.23
2018-04-02T22:48:44.621Z,31.43
2018-04-02T22:51:14.457Z,40.03
2018-04-02T22:53:43.951Z,42.07
2018-04-02T22:56:13.191Z,37.20
2018-04-02T22:58:42.843Z,28.60
2018-04-02T23:01:12.271Z,33.70
2018-04-02T23:03:41.784Z,31.33
2018-04-02T23:06:11.060Z,35.07
2018-04-02T23:08:40.454Z,28.27
2018-04-02T23:11:12.127Z,31.33
2018-04-02T23:13:41.512Z,42.40
2018-04-02T23:16:10.867Z,38.10
2018-04-02T23:18:43.702Z,37.70
2018-04-02T23:21:13.063Z,30.97
2018-04-02T23:23:42.305Z,37.87
2018-04-02T23:26:11.643Z,32.17
2018-04-02T23:28:41.782Z,37.63
2018-04-02T23:31:11.730Z,32.70
2018-04-02T23:34:21.411Z,32.27
2018-04-02T23:36:50.827Z,33.57
2018-04-02T23:39:20.262Z,40.37
2018-04-02T23:41:49.659Z,38.00
2018-04-02T23:44:19.268Z,50.13
2018-04-02T23:47:40.510Z,43.33
2018-04-02T23:50:10.026Z,35.00
2018-04-02T23:52:39.508Z,38.40
2018-04-02T23:55:09.026Z,38.93
